Aérodrome :
LOGIN :

S'inscrire | Disclaimer

   EN    FR    IT 

 










Légende :    VFR   VFR Marginal   IFR   IFR Intensif   IFR Très Intensif
Visi : 
Plafond : 
>= 8 km
>= 3000ft
5 à 8 km
1000 à 3000 ft
1500m à 5 km
500 à 1000 ft
800 à 1500m
200 à 500 ft
< 800m
< 200 ft
Symboles :   Orages  Brouillard  Fortes neiges  Fortes précipitations  Vent > 20 kt
SIGMETs :   Divers  Orages  Givrage  Turbulence  Onde Orograph.  Cendres Volcan.







- Altitude de l'aérodrome : 102 ft
- Code IATA : CNG
- Voir les cartes d'approche


LFBG - Cognac

DERNIER METAR :
  • 181530Z AUTO 16007KT 120V190 CAVOK 31/17 Q1008 NOSIG

METARs EXPIRÉS :
  • 181500Z AUTO 19006KT 160V230 CAVOK 30/15 Q1008 NOSIG
  • 181430Z AUTO 18007KT 140V220 CAVOK 31/15 Q1008 NOSIG
  • 181400Z AUTO 15005KT 100V200 CAVOK 30/16 Q1009 NOSIG
  • 181330Z AUTO 18006KT 140V220 CAVOK 30/16 Q1009 NOSIG
  • 181300Z AUTO 22008KT 160V250 CAVOK 29/15 Q1009 NOSIG

TAF TAF LFBG
Valide du 18 à 15h jusqu'au 19 à 15h UTC


181400Z 1815/1915 21010KT CAVOK
BECMG 1819/1821 30010KT
TEMPO 1821/1901 VRB20G35KT 3000 TSRA BKN080CB
Pas de NOTAMs connus pour ce terrain.



MET'MAP, la Météo Aéronautique d'un coup d'oeil ! - Copyright ORBIFLY Décembre 2007 - Disclaimer

ORBIFLY MET'MAP TEAM :

Programmation & Développement : Alexandra Zaïnal
Conception & Développement : Baudouin d'Aumeries
Co-Programmation & Développement : Marc-Olivier Méhu
Soutien technique & logistique : Manuel Goepfert

Contact : metmap@orbifly.com




SOURCES & CREDITS :

   NOAA